sensor_id;sensor_type;location;lat;lon;timestamp;pressure;altitude;pressure_sealevel;temperature;humidity
55010;BME280;40903;51.638;7.528;2023-02-22T00:01:39;101013.84;;;8.00;100.00
55010;BME280;40903;51.638;7.528;2023-02-22T00:04:15;101015.72;;;7.94;100.00
55010;BME280;40903;51.638;7.528;2023-02-22T00:06:44;101011.31;;;7.88;100.00
55010;BME280;40903;51.638;7.528;2023-02-22T00:09:09;101011.59;;;7.82;100.00
55010;BME280;40903;51.638;7.528;2023-02-22T00:11:35;101006.41;;;7.75;100.00
55010;BME280;40903;51.638;7.528;2023-02-22T00:14:00;101010.44;;;7.68;100.00
55010;BME280;40903;51.638;7.528;2023-02-22T00:16:26;101012.84;;;7.60;100.00
55010;BME280;40903;51.638;7.528;2023-02-22T00:18:51;101009.81;;;7.51;100.00
55010;BME280;40903;51.638;7.528;2023-02-22T00:21:17;101002.97;;;7.44;100.00
55010;BME280;40903;51.638;7.528;2023-02-22T00:23:45;100999.13;;;7.35;100.00
55010;BME280;40903;51.638;7.528;2023-02-22T00:26:11;100992.53;;;7.26;100.00
55010;BME280;40903;51.638;7.528;2023-02-22T00:28:37;100992.75;;;7.19;100.00
55010;BME280;40903;51.638;7.528;2023-02-22T00:31:03;100987.84;;;7.11;100.00
55010;BME280;40903;51.638;7.528;2023-02-22T00:33:30;100994.28;;;7.05;100.00
55010;BME280;40903;51.638;7.528;2023-02-22T00:35:56;100990.75;;;7.00;100.00
55010;BME280;40903;51.638;7.528;2023-02-22T00:38:21;100992.84;;;6.93;100.00
55010;BME280;40903;51.638;7.528;2023-02-22T00:40:47;100991.19;;;6.87;100.00
55010;BME280;40903;51.638;7.528;2023-02-22T00:43:12;100985.16;;;6.80;100.00
55010;BME280;40903;51.638;7.528;2023-02-22T00:45:38;100997.84;;;6.74;100.00
55010;BME280;40903;51.638;7.528;2023-02-22T00:48:04;100987.75;;;6.65;100.00
55010;BME280;40903;51.638;7.528;2023-02-22T00:50:29;100986.59;;;6.56;100.00
55010;BME280;40903;51.638;7.528;2023-02-22T00:52:55;100982.47;;;6.48;100.00
55010;BME280;40903;51.638;7.528;2023-02-22T00:55:25;100979.97;;;6.42;100.00
55010;BME280;40903;51.638;7.528;2023-02-22T00:57:50;100984.75;;;6.35;100.00
55010;BME280;40903;51.638;7.528;2023-02-22T01:00:26;100977.91;;;6.27;100.00
55010;BME280;40903;51.638;7.528;2023-02-22T01:02:51;100970.25;;;6.19;100.00
55010;BME280;40903;51.638;7.528;2023-02-22T01:05:21;100970.47;;;6.13;100.00
55010;BME280;40903;51.638;7.528;2023-02-22T01:07:47;100961.97;;;6.04;100.00
55010;BME280;40903;51.638;7.528;2023-02-22T01:10:12;100960.28;;;5.98;100.00
55010;BME280;40903;51.638;7.528;2023-02-22T01:12:38;100961.53;;;5.91;100.00
55010;BME280;40903;51.638;7.528;2023-02-22T01:15:03;100955.53;;;5.84;100.00
55010;BME280;40903;51.638;7.528;2023-02-22T01:17:29;100958.75;;;5.81;100.00
55010;BME280;40903;51.638;7.528;2023-02-22T01:19:54;100957.56;;;5.77;100.00
55010;BME280;40903;51.638;7.528;2023-02-22T01:22:20;100954.06;;;5.76;100.00
55010;BME280;40903;51.638;7.528;2023-02-22T01:24:46;100958.63;;;5.76;100.00
55010;BME280;40903;51.638;7.528;2023-02-22T01:27:11;100958.38;;;5.77;100.00
55010;BME280;40903;51.638;7.528;2023-02-22T01:29:37;100957.13;;;5.80;100.00
55010;BME280;40903;51.638;7.528;2023-02-22T01:32:03;100952.00;;;5.83;100.00
55010;BME280;40903;51.638;7.528;2023-02-22T01:34:29;100953.94;;;5.88;100.00
55010;BME280;40903;51.638;7.528;2023-02-22T01:36:54;100946.69;;;5.93;100.00
55010;BME280;40903;51.638;7.528;2023-02-22T01:39:20;100951.09;;;5.99;100.00
55010;BME280;40903;51.638;7.528;2023-02-22T01:41:45;100942.47;;;6.02;100.00
55010;BME280;40903;51.638;7.528;2023-02-22T01:44:18;100943.63;;;6.11;100.00
55010;BME280;40903;51.638;7.528;2023-02-22T01:46:44;100928.25;;;6.17;100.00
55010;BME280;40903;51.638;7.528;2023-02-22T01:49:09;100935.63;;;6.21;100.00
55010;BME280;40903;51.638;7.528;2023-02-22T01:51:36;100936.50;;;6.27;100.00
55010;BME280;40903;51.638;7.528;2023-02-22T01:54:05;100921.34;;;6.31;100.00
55010;BME280;40903;51.638;7.528;2023-02-22T01:56:35;100926.56;;;6.37;100.00
55010;BME280;40903;51.638;7.528;2023-02-22T01:59:03;100924.72;;;6.43;100.00
55010;BME280;40903;51.638;7.528;2023-02-22T02:01:31;100921.25;;;6.47;100.00
55010;BME280;40903;51.638;7.528;2023-02-22T02:03:57;100916.66;;;6.53;100.00
55010;BME280;40903;51.638;7.528;2023-02-22T02:06:24;100922.69;;;6.60;100.00
55010;BME280;40903;51.638;7.528;2023-02-22T02:11:45;100916.28;;;6.71;100.00
55010;BME280;40903;51.638;7.528;2023-02-22T02:14:11;100914.69;;;6.75;100.00
55010;BME280;40903;51.638;7.528;2023-02-22T02:16:41;100911.19;;;6.79;100.00
55010;BME280;40903;51.638;7.528;2023-02-22T02:19:10;100915.84;;;6.84;100.00
55010;BME280;40903;51.638;7.528;2023-02-22T02:21:40;100911.75;;;6.86;100.00
55010;BME280;40903;51.638;7.528;2023-02-22T02:37:11;100899.03;;;6.87;100.00
55010;BME280;40903;51.638;7.528;2023-02-22T02:39:36;100901.47;;;6.88;100.00
55010;BME280;40903;51.638;7.528;2023-02-22T02:42:05;100896.06;;;6.88;100.00
55010;BME280;40903;51.638;7.528;2023-02-22T02:44:32;100897.69;;;6.89;100.00
55010;BME280;40903;51.638;7.528;2023-02-22T02:47:01;100890.38;;;6.90;100.00
55010;BME280;40903;51.638;7.528;2023-02-22T02:49:33;100889.84;;;6.88;100.00
55010;BME280;40903;51.638;7.528;2023-02-22T02:52:00;100888.19;;;6.87;100.00
55010;BME280;40903;51.638;7.528;2023-02-22T02:54:26;100874.38;;;6.88;100.00
55010;BME280;40903;51.638;7.528;2023-02-22T02:56:52;100881.69;;;6.88;100.00
55010;BME280;40903;51.638;7.528;2023-02-22T02:59:31;100874.13;;;6.90;100.00
55010;BME280;40903;51.638;7.528;2023-02-22T03:07:23;100867.88;;;6.89;100.00
55010;BME280;40903;51.638;7.528;2023-02-22T03:10:04;100863.53;;;6.88;100.00
55010;BME280;40903;51.638;7.528;2023-02-22T03:12:39;100862.72;;;6.88;100.00
55010;BME280;40903;51.638;7.528;2023-02-22T03:20:29;100851.81;;;6.78;100.00
55010;BME280;40903;51.638;7.528;2023-02-22T03:23:02;100850.19;;;6.77;100.00
55010;BME280;40903;51.638;7.528;2023-02-22T03:25:32;100851.28;;;6.76;100.00
55010;BME280;40903;51.638;7.528;2023-02-22T03:27:59;100849.88;;;6.73;100.00
55010;BME280;40903;51.638;7.528;2023-02-22T03:32:59;100843.66;;;6.73;100.00
55010;BME280;40903;51.638;7.528;2023-02-22T03:35:27;100838.25;;;6.73;100.00
55010;BME280;40903;51.638;7.528;2023-02-22T03:37:55;100842.28;;;6.70;100.00
55010;BME280;40903;51.638;7.528;2023-02-22T03:40:32;100842.81;;;6.67;100.00
55010;BME280;40903;51.638;7.528;2023-02-22T03:43:09;100831.72;;;6.69;100.00
55010;BME280;40903;51.638;7.528;2023-02-22T03:45:39;100831.44;;;6.65;100.00
55010;BME280;40903;51.638;7.528;2023-02-22T03:48:10;100831.13;;;6.62;100.00
55010;BME280;40903;51.638;7.528;2023-02-22T03:50:38;100835.75;;;6.61;100.00
55010;BME280;40903;51.638;7.528;2023-02-22T03:53:03;100827.31;;;6.58;100.00
55010;BME280;40903;51.638;7.528;2023-02-22T03:55:29;100835.97;;;6.55;100.00
55010;BME280;40903;51.638;7.528;2023-02-22T03:57:56;100827.53;;;6.46;100.00
55010;BME280;40903;51.638;7.528;2023-02-22T04:00:23;100831.03;;;6.47;100.00
55010;BME280;40903;51.638;7.528;2023-02-22T04:02:49;100835.88;;;6.45;100.00
55010;BME280;40903;51.638;7.528;2023-02-22T04:05:15;100831.53;;;6.39;100.00
55010;BME280;40903;51.638;7.528;2023-02-22T04:07:41;100830.69;;;6.38;100.00
55010;BME280;40903;51.638;7.528;2023-02-22T04:10:06;100830.38;;;6.30;100.00
55010;BME280;40903;51.638;7.528;2023-02-22T04:12:35;100832.75;;;6.26;100.00
55010;BME280;40903;51.638;7.528;2023-02-22T04:15:00;100832.53;;;6.28;100.00
55010;BME280;40903;51.638;7.528;2023-02-22T04:17:26;100822.75;;;6.27;100.00
55010;BME280;40903;51.638;7.528;2023-02-22T04:19:51;100830.88;;;6.27;100.00
55010;BME280;40903;51.638;7.528;2023-02-22T04:22:16;100827.34;;;6.26;100.00
55010;BME280;40903;51.638;7.528;2023-02-22T04:24:41;100825.41;;;6.22;100.00
55010;BME280;40903;51.638;7.528;2023-02-22T04:27:07;100828.13;;;6.22;100.00
55010;BME280;40903;51.638;7.528;2023-02-22T04:29:32;100823.78;;;6.21;100.00
55010;BME280;40903;51.638;7.528;2023-02-22T04:31:57;100815.94;;;6.19;100.00
55010;BME280;40903;51.638;7.528;2023-02-22T04:34:22;100822.44;;;6.18;100.00
55010;BME280;40903;51.638;7.528;2023-02-22T04:36:48;100812.41;;;6.19;100.00
55010;BME280;40903;51.638;7.528;2023-02-22T04:39:13;100807.25;;;6.17;100.00
55010;BME280;40903;51.638;7.528;2023-02-22T04:41:38;100813.47;;;6.18;100.00
55010;BME280;40903;51.638;7.528;2023-02-22T04:44:04;100808.06;;;6.18;100.00
55010;BME280;40903;51.638;7.528;2023-02-22T04:46:29;100808.91;;;6.18;100.00
55010;BME280;40903;51.638;7.528;2023-02-22T04:48:56;100810.53;;;6.19;100.00
55010;BME280;40903;51.638;7.528;2023-02-22T04:51:22;100803.97;;;6.15;100.00
55010;BME280;40903;51.638;7.528;2023-02-22T04:53:47;100807.50;;;6.16;100.00
55010;BME280;40903;51.638;7.528;2023-02-22T04:56:12;100803.19;;;6.15;100.00
55010;BME280;40903;51.638;7.528;2023-02-22T04:58:37;100796.13;;;6.14;100.00
55010;BME280;40903;51.638;7.528;2023-02-22T05:01:03;100798.53;;;6.10;100.00
55010;BME280;40903;51.638;7.528;2023-02-22T05:03:28;100796.88;;;6.04;100.00
55010;BME280;40903;51.638;7.528;2023-02-22T05:05:53;100799.81;;;6.03;100.00
55010;BME280;40903;51.638;7.528;2023-02-22T05:08:18;100796.56;;;6.01;100.00
55010;BME280;40903;51.638;7.528;2023-02-22T05:10:44;100797.09;;;5.98;100.00
55010;BME280;40903;51.638;7.528;2023-02-22T05:13:09;100795.38;;;5.92;100.00
55010;BME280;40903;51.638;7.528;2023-02-22T05:15:34;100803.50;;;5.92;100.00
55010;BME280;40903;51.638;7.528;2023-02-22T05:17:59;100800.00;;;5.91;100.00
55010;BME280;40903;51.638;7.528;2023-02-22T05:22:51;100797.03;;;5.93;100.00
55010;BME280;40903;51.638;7.528;2023-02-22T05:25:17;100794.59;;;5.91;100.00
55010;BME280;40903;51.638;7.528;2023-02-22T05:27:44;100792.13;;;5.90;100.00
55010;BME280;40903;51.638;7.528;2023-02-22T05:30:09;100789.19;;;5.91;100.00
55010;BME280;40903;51.638;7.528;2023-02-22T05:32:35;100786.19;;;5.93;100.00
55010;BME280;40903;51.638;7.528;2023-02-22T05:35:00;100786.47;;;5.91;100.00
55010;BME280;40903;51.638;7.528;2023-02-22T05:37:25;100790.81;;;5.92;100.00
55010;BME280;40903;51.638;7.528;2023-02-22T05:39:50;100794.06;;;5.94;100.00
55010;BME280;40903;51.638;7.528;2023-02-22T05:42:16;100791.38;;;5.94;100.00
55010;BME280;40903;51.638;7.528;2023-02-22T05:44:41;100788.66;;;5.94;100.00
55010;BME280;40903;51.638;7.528;2023-02-22T05:47:06;100777.59;;;5.96;100.00
55010;BME280;40903;51.638;7.528;2023-02-22T05:49:31;100788.13;;;5.97;100.00
55010;BME280;40903;51.638;7.528;2023-02-22T05:51:57;100786.78;;;5.95;100.00
55010;BME280;40903;51.638;7.528;2023-02-22T05:54:23;100785.41;;;5.92;100.00
55010;BME280;40903;51.638;7.528;2023-02-22T05:56:49;100778.91;;;5.93;100.00
55010;BME280;40903;51.638;7.528;2023-02-22T05:59:14;100785.16;;;5.94;100.00
55010;BME280;40903;51.638;7.528;2023-02-22T06:01:39;100782.94;;;5.91;100.00
55010;BME280;40903;51.638;7.528;2023-02-22T06:04:04;100780.50;;;5.89;100.00
55010;BME280;40903;51.638;7.528;2023-02-22T06:06:30;100783.75;;;5.86;100.00
55010;BME280;40903;51.638;7.528;2023-02-22T06:08:55;100771.00;;;5.87;100.00
55010;BME280;40903;51.638;7.528;2023-02-22T06:11:20;100770.44;;;5.85;100.00
55010;BME280;40903;51.638;7.528;2023-02-22T06:13:51;100778.81;;;5.83;100.00
55010;BME280;40903;51.638;7.528;2023-02-22T06:16:18;100777.72;;;5.79;100.00
55010;BME280;40903;51.638;7.528;2023-02-22T06:18:45;100777.91;;;5.78;100.00
55010;BME280;40903;51.638;7.528;2023-02-22T06:21:10;100777.88;;;5.73;100.00
55010;BME280;40903;51.638;7.528;2023-02-22T06:23:35;100784.38;;;5.72;100.00
55010;BME280;40903;51.638;7.528;2023-02-22T06:26:00;100782.19;;;5.69;100.00
55010;BME280;40903;51.638;7.528;2023-02-22T06:28:26;100786.47;;;5.65;100.00
55010;BME280;40903;51.638;7.528;2023-02-22T06:30:51;100776.94;;;5.58;100.00
55010;BME280;40903;51.638;7.528;2023-02-22T06:33:16;100782.09;;;5.59;100.00
55010;BME280;40903;51.638;7.528;2023-02-22T06:35:41;100785.31;;;5.56;100.00
55010;BME280;40903;51.638;7.528;2023-02-22T06:38:06;100786.63;;;5.54;100.00
55010;BME280;40903;51.638;7.528;2023-02-22T06:40:32;100786.91;;;5.52;100.00
55010;BME280;40903;51.638;7.528;2023-02-22T06:42:58;100776.59;;;5.49;100.00
55010;BME280;40903;51.638;7.528;2023-02-22T06:45:24;100778.72;;;5.47;100.00
55010;BME280;40903;51.638;7.528;2023-02-22T06:47:49;100780.78;;;5.35;100.00
55010;BME280;40903;51.638;7.528;2023-02-22T06:50:22;100780.13;;;5.28;100.00
55010;BME280;40903;51.638;7.528;2023-02-22T06:52:48;100781.69;;;5.19;100.00
55010;BME280;40903;51.638;7.528;2023-02-22T06:55:20;100782.06;;;5.06;100.00
55010;BME280;40903;51.638;7.528;2023-02-22T06:57:45;100786.81;;;4.99;100.00
55010;BME280;40903;51.638;7.528;2023-02-22T07:00:11;100791.44;;;4.99;100.00
55010;BME280;40903;51.638;7.528;2023-02-22T07:02:36;100784.44;;;5.03;100.00
55010;BME280;40903;51.638;7.528;2023-02-22T07:05:02;100779.03;;;5.03;100.00
55010;BME280;40903;51.638;7.528;2023-02-22T07:07:27;100782.31;;;5.05;100.00
55010;BME280;40903;51.638;7.528;2023-02-22T07:09:54;100790.72;;;5.08;100.00
55010;BME280;40903;51.638;7.528;2023-02-22T07:12:19;100791.28;;;5.10;100.00
55010;BME280;40903;51.638;7.528;2023-02-22T07:14:47;100789.66;;;5.09;100.00
55010;BME280;40903;51.638;7.528;2023-02-22T07:17:13;100795.63;;;5.11;100.00
55010;BME280;40903;51.638;7.528;2023-02-22T07:19:38;100789.16;;;5.12;100.00
55010;BME280;40903;51.638;7.528;2023-02-22T07:22:03;100789.72;;;5.14;100.00
55010;BME280;40903;51.638;7.528;2023-02-22T07:24:30;100784.31;;;5.14;100.00
55010;BME280;40903;51.638;7.528;2023-02-22T07:26:55;100789.78;;;5.19;100.00
55010;BME280;40903;51.638;7.528;2023-02-22T07:29:20;100789.00;;;5.24;100.00
55010;BME280;40903;51.638;7.528;2023-02-22T07:31:46;100790.63;;;5.25;100.00
55010;BME280;40903;51.638;7.528;2023-02-22T07:34:12;100782.28;;;5.26;100.00
55010;BME280;40903;51.638;7.528;2023-02-22T07:36:38;100786.66;;;5.32;100.00
55010;BME280;40903;51.638;7.528;2023-02-22T07:39:03;100787.25;;;5.34;100.00
55010;BME280;40903;51.638;7.528;2023-02-22T07:41:28;100788.63;;;5.37;100.00
55010;BME280;40903;51.638;7.528;2023-02-22T07:43:53;100788.38;;;5.38;100.00
55010;BME280;40903;51.638;7.528;2023-02-22T07:46:19;100779.44;;;5.38;100.00
55010;BME280;40903;51.638;7.528;2023-02-22T07:48:44;100786.19;;;5.35;100.00
55010;BME280;40903;51.638;7.528;2023-02-22T07:51:09;100777.00;;;5.36;100.00
55010;BME280;40903;51.638;7.528;2023-02-22T07:53:35;100781.38;;;5.42;100.00
55010;BME280;40903;51.638;7.528;2023-02-22T07:56:01;100778.63;;;5.37;100.00
55010;BME280;40903;51.638;7.528;2023-02-22T07:58:27;100780.25;;;5.38;100.00
55010;BME280;40903;51.638;7.528;2023-02-22T08:00:53;100768.41;;;5.44;100.00
55010;BME280;40903;51.638;7.528;2023-02-22T08:03:20;100771.94;;;5.45;100.00
55010;BME280;40903;51.638;7.528;2023-02-22T08:05:46;100776.47;;;5.39;100.00
55010;BME280;40903;51.638;7.528;2023-02-22T08:08:12;100768.94;;;5.41;100.00
55010;BME280;40903;51.638;7.528;2023-02-22T08:10:39;100775.75;;;5.49;100.00
55010;BME280;40903;51.638;7.528;2023-02-22T08:13:05;100771.22;;;5.54;100.00
55010;BME280;40903;51.638;7.528;2023-02-22T08:15:34;100768.00;;;5.57;100.00
55010;BME280;40903;51.638;7.528;2023-02-22T08:17:59;100763.41;;;5.58;100.00
55010;BME280;40903;51.638;7.528;2023-02-22T08:20:25;100756.63;;;5.55;100.00
55010;BME280;40903;51.638;7.528;2023-02-22T08:22:51;100757.50;;;5.61;100.00
55010;BME280;40903;51.638;7.528;2023-02-22T08:25:16;100755.34;;;5.63;100.00
55010;BME280;40903;51.638;7.528;2023-02-22T08:27:42;100755.66;;;5.66;100.00
55010;BME280;40903;51.638;7.528;2023-02-22T08:30:10;100754.06;;;5.70;100.00
55010;BME280;40903;51.638;7.528;2023-02-22T08:32:37;100748.69;;;5.75;100.00
55010;BME280;40903;51.638;7.528;2023-02-22T08:35:02;100749.31;;;5.82;100.00
55010;BME280;40903;51.638;7.528;2023-02-22T08:37:28;100753.09;;;5.81;100.00
55010;BME280;40903;51.638;7.528;2023-02-22T08:39:53;100750.97;;;5.83;100.00
55010;BME280;40903;51.638;7.528;2023-02-22T08:42:20;100749.38;;;5.92;100.00
55010;BME280;40903;51.638;7.528;2023-02-22T08:44:45;100754.59;;;5.98;100.00
55010;BME280;40903;51.638;7.528;2023-02-22T08:47:10;100738.13;;;6.05;100.00
55010;BME280;40903;51.638;7.528;2023-02-22T08:49:36;100738.97;;;6.10;100.00
55010;BME280;40903;51.638;7.528;2023-02-22T08:52:01;100731.19;;;6.19;100.00
55010;BME280;40903;51.638;7.528;2023-02-22T08:54:26;100732.34;;;6.28;100.00
55010;BME280;40903;51.638;7.528;2023-02-22T08:56:52;100733.44;;;6.32;100.00
55010;BME280;40903;51.638;7.528;2023-02-22T08:59:17;100734.53;;;6.36;100.00
55010;BME280;40903;51.638;7.528;2023-02-22T09:01:42;100733.50;;;6.42;100.00
55010;BME280;40903;51.638;7.528;2023-02-22T09:04:07;100729.19;;;6.46;100.00
55010;BME280;40903;51.638;7.528;2023-02-22T09:06:33;100730.31;;;6.55;100.00
55010;BME280;40903;51.638;7.528;2023-02-22T09:08:58;100718.97;;;6.63;100.00
55010;BME280;40903;51.638;7.528;2023-02-22T09:11:23;100725.25;;;6.73;100.00
55010;BME280;40903;51.638;7.528;2023-02-22T09:13:48;100715.22;;;6.74;100.00
55010;BME280;40903;51.638;7.528;2023-02-22T09:16:14;100713.66;;;6.88;100.00
55010;BME280;40903;51.638;7.528;2023-02-22T09:18:39;100709.91;;;7.04;100.00
55010;BME280;40903;51.638;7.528;2023-02-22T09:21:05;100715.91;;;7.16;100.00
55010;BME280;40903;51.638;7.528;2023-02-22T09:23:30;100705.91;;;7.26;100.00
55010;BME280;40903;51.638;7.528;2023-02-22T09:25:55;100705.91;;;7.36;100.00
55010;BME280;40903;51.638;7.528;2023-02-22T09:28:20;100702.66;;;7.49;100.00
55010;BME280;40903;51.638;7.528;2023-02-22T09:30:46;100697.50;;;7.58;100.00
55010;BME280;40903;51.638;7.528;2023-02-22T09:33:12;100700.78;;;7.65;100.00
55010;BME280;40903;51.638;7.528;2023-02-22T09:35:38;100701.56;;;7.65;100.00
55010;BME280;40903;51.638;7.528;2023-02-22T09:38:06;100693.19;;;7.76;100.00
55010;BME280;40903;51.638;7.528;2023-02-22T09:40:32;100694.78;;;7.92;100.00
55010;BME280;40903;51.638;7.528;2023-02-22T09:43:16;100694.50;;;8.04;100.00
55010;BME280;40903;51.638;7.528;2023-02-22T09:48:12;100696.91;;;8.35;100.00
55010;BME280;40903;51.638;7.528;2023-02-22T09:50:39;100692.53;;;8.49;100.00
55010;BME280;40903;51.638;7.528;2023-02-22T09:55:57;100685.88;;;8.80;100.00
55010;BME280;40903;51.638;7.528;2023-02-22T09:58:24;100686.31;;;8.92;100.00
55010;BME280;40903;51.638;7.528;2023-02-22T10:00:51;100680.28;;;9.05;100.00
55010;BME280;40903;51.638;7.528;2023-02-22T10:03:23;100681.28;;;9.19;100.00
55010;BME280;40903;51.638;7.528;2023-02-22T10:05:59;100676.56;;;9.30;100.00
55010;BME280;40903;51.638;7.528;2023-02-22T10:08:27;100680.28;;;9.49;100.00
55010;BME280;40903;51.638;7.528;2023-02-22T10:10:57;100677.97;;;9.61;100.00
55010;BME280;40903;51.638;7.528;2023-02-22T10:16:02;100674.59;;;9.73;100.00
55010;BME280;40903;51.638;7.528;2023-02-22T10:18:39;100674.53;;;9.83;100.00
55010;BME280;40903;51.638;7.528;2023-02-22T10:26:21;100661.84;;;10.26;100.00
55010;BME280;40903;51.638;7.528;2023-02-22T10:28:55;100661.81;;;10.31;100.00
55010;BME280;40903;51.638;7.528;2023-02-22T10:31:30;100656.81;;;10.38;100.00
55010;BME280;40903;51.638;7.528;2023-02-22T10:33:58;100651.78;;;10.50;100.00
55010;BME280;40903;51.638;7.528;2023-02-22T10:36:25;100644.03;;;10.57;100.00
55010;BME280;40903;51.638;7.528;2023-02-22T10:41:44;100644.22;;;10.84;100.00
55010;BME280;40903;51.638;7.528;2023-02-22T10:44:13;100647.34;;;10.96;100.00
55010;BME280;40903;51.638;7.528;2023-02-22T10:46:39;100643.66;;;11.05;100.00
55010;BME280;40903;51.638;7.528;2023-02-22T10:49:06;100636.84;;;11.21;100.00
55010;BME280;40903;51.638;7.528;2023-02-22T10:51:31;100645.13;;;11.35;100.00
55010;BME280;40903;51.638;7.528;2023-02-22T10:54:17;100639.47;;;11.45;100.00
55010;BME280;40903;51.638;7.528;2023-02-22T10:56:47;100639.88;;;11.57;100.00
55010;BME280;40903;51.638;7.528;2023-02-22T10:59:24;100637.78;;;11.67;100.00
55010;BME280;40903;51.638;7.528;2023-02-22T11:01:50;100635.38;;;11.79;100.00
55010;BME280;40903;51.638;7.528;2023-02-22T11:04:19;100634.38;;;11.88;100.00
55010;BME280;40903;51.638;7.528;2023-02-22T11:07:29;100635.84;;;11.99;100.00
55010;BME280;40903;51.638;7.528;2023-02-22T11:12:19;100634.72;;;12.14;100.00
55010;BME280;40903;51.638;7.528;2023-02-22T11:14:45;100632.91;;;12.23;100.00
55010;BME280;40903;51.638;7.528;2023-02-22T11:17:12;100630.00;;;12.33;100.00
55010;BME280;40903;51.638;7.528;2023-02-22T11:19:45;100625.91;;;12.44;100.00
55010;BME280;40903;51.638;7.528;2023-02-22T11:22:21;100621.38;;;12.53;100.00
55010;BME280;40903;51.638;7.528;2023-02-22T11:25:00;100619.84;;;12.60;100.00
55010;BME280;40903;51.638;7.528;2023-02-22T11:27:36;100615.09;;;12.66;100.00
55010;BME280;40903;51.638;7.528;2023-02-22T11:32:45;100612.59;;;12.91;100.00
55010;BME280;40903;51.638;7.528;2023-02-22T11:37:42;100610.53;;;13.10;99.09
55010;BME280;40903;51.638;7.528;2023-02-22T11:40:20;100599.47;;;13.15;96.01
55010;BME280;40903;51.638;7.528;2023-02-22T11:42:47;100594.25;;;13.27;100.00
55010;BME280;40903;51.638;7.528;2023-02-22T11:48:00;100593.56;;;13.44;97.93
55010;BME280;40903;51.638;7.528;2023-02-22T11:50:28;100591.25;;;13.59;99.03
55010;BME280;40903;51.638;7.528;2023-02-22T11:55:35;100584.88;;;13.72;93.33
55010;BME280;40903;51.638;7.528;2023-02-22T11:58:25;100578.84;;;13.83;93.79
55010;BME280;40903;51.638;7.528;2023-02-22T12:03:53;100572.97;;;14.07;94.00
55010;BME280;40903;51.638;7.528;2023-02-22T12:09:11;100564.34;;;14.22;91.37
55010;BME280;40903;51.638;7.528;2023-02-22T12:11:57;100562.41;;;14.31;91.10
55010;BME280;40903;51.638;7.528;2023-02-22T12:14:29;100551.94;;;14.41;92.12
55010;BME280;40903;51.638;7.528;2023-02-22T12:19:29;100548.59;;;14.53;89.10
55010;BME280;40903;51.638;7.528;2023-02-22T12:21:59;100546.66;;;14.62;86.93
55010;BME280;40903;51.638;7.528;2023-02-22T12:24:29;100540.41;;;14.70;85.51
55010;BME280;40903;51.638;7.528;2023-02-22T12:27:02;100545.72;;;14.75;84.48
55010;BME280;40903;51.638;7.528;2023-02-22T12:29:36;100544.59;;;14.84;84.19
55010;BME280;40903;51.638;7.528;2023-02-22T12:32:04;100539.09;;;14.93;81.13
55010;BME280;40903;51.638;7.528;2023-02-22T12:34:39;100538.78;;;15.03;80.86
55010;BME280;40903;51.638;7.528;2023-02-22T12:42:14;100537.47;;;15.26;81.78
55010;BME280;40903;51.638;7.528;2023-02-22T12:44:41;100528.91;;;15.36;81.72
55010;BME280;40903;51.638;7.528;2023-02-22T12:47:12;100533.13;;;15.42;78.50
55010;BME280;40903;51.638;7.528;2023-02-22T12:49:41;100524.19;;;15.53;76.98
55010;BME280;40903;51.638;7.528;2023-02-22T12:52:09;100534.06;;;15.54;74.83
55010;BME280;40903;51.638;7.528;2023-02-22T12:57:19;100516.22;;;15.69;73.17
55010;BME280;40903;51.638;7.528;2023-02-22T12:59:49;100521.22;;;15.75;67.86
55010;BME280;40903;51.638;7.528;2023-02-22T13:04:47;100516.19;;;15.85;69.18
55010;BME280;40903;51.638;7.528;2023-02-22T13:15:02;100508.63;;;16.03;64.14
55010;BME280;40903;51.638;7.528;2023-02-22T13:18:09;100504.06;;;16.07;66.36
55010;BME280;40903;51.638;7.528;2023-02-22T13:25:27;100511.63;;;16.18;64.51
55010;BME280;40903;51.638;7.528;2023-02-22T13:28:00;100499.28;;;16.24;66.72
55010;BME280;40903;51.638;7.528;2023-02-22T13:32:59;100505.19;;;16.43;63.10
55010;BME280;40903;51.638;7.528;2023-02-22T13:48:40;100505.41;;;16.59;58.79
55010;BME280;40903;51.638;7.528;2023-02-22T13:56:08;100513.41;;;16.72;53.35
55010;BME280;40903;51.638;7.528;2023-02-22T13:58:45;100506.97;;;16.68;54.56
55010;BME280;40903;51.638;7.528;2023-02-22T14:01:14;100506.03;;;16.64;52.09
55010;BME280;40903;51.638;7.528;2023-02-22T14:04:14;100505.22;;;16.64;52.68
55010;BME280;40903;51.638;7.528;2023-02-22T14:06:41;100494.09;;;16.60;54.23
55010;BME280;40903;51.638;7.528;2023-02-22T14:09:08;100503.81;;;16.58;53.61
55010;BME280;40903;51.638;7.528;2023-02-22T14:16:27;100500.38;;;16.61;54.41
55010;BME280;40903;51.638;7.528;2023-02-22T14:19:00;100499.91;;;16.59;54.08
55010;BME280;40903;51.638;7.528;2023-02-22T14:21:26;100511.44;;;16.52;53.43
55010;BME280;40903;51.638;7.528;2023-02-22T14:23:51;100507.75;;;16.48;53.67
55010;BME280;40903;51.638;7.528;2023-02-22T14:26:20;100506.34;;;16.34;52.67
55010;BME280;40903;51.638;7.528;2023-02-22T14:28:49;100503.50;;;16.22;53.93
55010;BME280;40903;51.638;7.528;2023-02-22T14:31:16;100504.53;;;16.17;54.38
55010;BME280;40903;51.638;7.528;2023-02-22T14:33:53;100496.78;;;16.11;56.12
55010;BME280;40903;51.638;7.528;2023-02-22T14:36:20;100490.19;;;16.03;55.89
55010;BME280;40903;51.638;7.528;2023-02-22T14:38:47;100498.09;;;16.05;54.17
55010;BME280;40903;51.638;7.528;2023-02-22T14:41:13;100502.84;;;15.96;53.92
55010;BME280;40903;51.638;7.528;2023-02-22T14:43:40;100502.38;;;15.94;53.76
55010;BME280;40903;51.638;7.528;2023-02-22T14:46:07;100501.94;;;15.83;56.01
55010;BME280;40903;51.638;7.528;2023-02-22T14:48:38;100497.28;;;15.76;56.96
55010;BME280;40903;51.638;7.528;2023-02-22T14:51:15;100498.41;;;15.75;55.03